Time;durP1;ratioP1;P1;durP2;ratioP2;P2;SDS_P1;SDS_P2;PMS_P1;PMS_P2;Temp;Humidity;BMP_temperature;BMP_pressure;BME280_temperature;BME280_humidity;BME280_pressure;Samples;Min_cycle;Max_cycle;Signal;HPM_P1;HPM_P2
2022/08/29 00:00:53;;;;;;;25.20;11.90;;;;;;;12.68;100.00;101935.97;1946411;28;20019;-81
2022/08/29 00:01:51;;;;;;;27.38;12.40;;;;;;;12.67;100.00;101943.88;1946548;29;20098;-78
2022/08/29 00:02:52;;;;;;;34.47;11.85;;;;;;;12.62;100.00;101934.44;1946426;29;20034;-83
2022/08/29 00:03:54;;;;;;;19.98;11.50;;;;;;;12.62;100.00;101930.94;1946404;28;20029;-79
2022/08/29 00:04:52;;;;;;;18.00;11.32;;;;;;;12.58;100.00;101940.69;1946514;29;20030;-81
2022/08/29 00:05:49;;;;;;;24.67;11.77;;;;;;;12.56;100.00;101932.00;1948931;28;20026;-79
2022/08/29 00:06:47;;;;;;;22.90;12.32;;;;;;;12.54;100.00;101936.44;1947216;28;20406;-79
2022/08/29 00:07:44;;;;;;;23.10;12.15;;;;;;;12.53;100.00;101931.25;1946502;29;20019;-81
2022/08/29 00:08:42;;;;;;;23.08;12.80;;;;;;;12.52;100.00;101934.78;1954139;28;20030;-79
2022/08/29 00:09:41;;;;;;;22.30;11.57;;;;;;;12.49;100.00;101931.34;1947262;28;20027;-80
2022/08/29 00:10:40;;;;;;;24.13;12.57;;;;;;;12.50;100.00;101937.47;1939437;29;20084;-81
2022/08/29 00:11:37;;;;;;;22.25;12.32;;;;;;;12.47;100.00;101937.56;1946153;29;20050;-79
2022/08/29 00:12:36;;;;;;;22.60;13.07;;;;;;;12.47;100.00;101940.16;1953914;28;20023;-80
2022/08/29 00:13:35;;;;;;;24.17;12.77;;;;;;;12.47;100.00;101937.56;1953974;28;20023;-82
2022/08/29 00:14:33;;;;;;;22.25;11.82;;;;;;;12.46;100.00;101931.44;1946739;28;20027;-80
2022/08/29 00:15:31;;;;;;;24.95;12.27;;;;;;;12.44;100.00;101937.66;1946326;28;20087;-80
2022/08/29 00:16:28;;;;;;;25.35;12.45;;;;;;;12.42;100.00;101939.47;1939118;29;20384;-79
2022/08/29 00:17:26;;;;;;;24.67;13.20;;;;;;;12.41;100.00;101932.50;1938847;29;20046;-80
2022/08/29 00:18:23;;;;;;;19.75;12.50;;;;;;;12.42;100.00;101940.31;1945613;29;20443;-79
2022/08/29 00:19:21;;;;;;;20.08;12.35;;;;;;;12.40;100.00;101933.41;1946472;29;20080;-79
2022/08/29 00:20:24;;;;;;;25.35;12.32;;;;;;;12.41;100.00;101933.38;1954137;28;20078;-79
2022/08/29 00:21:22;;;;;;;22.63;12.23;;;;;;;12.40;100.00;101936.03;1954177;28;20286;-80
2022/08/29 00:22:19;;;;;;;28.52;12.90;;;;;;;12.38;100.00;101932.63;1946349;29;20140;-79
2022/08/29 00:23:17;;;;;;;23.80;12.00;;;;;;;12.35;100.00;101931.81;1946627;29;20414;-81
2022/08/29 00:24:15;;;;;;;21.10;12.80;;;;;;;12.33;100.00;101931.03;1946484;29;20088;-79
2022/08/29 00:25:14;;;;;;;19.45;12.55;;;;;;;12.32;100.00;101931.06;1946420;29;20038;-80
2022/08/29 00:26:12;;;;;;;22.95;11.85;;;;;;;12.32;100.00;101926.66;1953740;28;20035;-81
2022/08/29 00:27:09;;;;;;;22.95;12.88;;;;;;;12.30;100.00;101925.00;1954166;28;20470;-78
2022/08/29 00:28:07;;;;;;;22.77;12.45;;;;;;;12.28;100.00;101927.69;1946981;28;20360;-81
2022/08/29 00:29:04;;;;;;;23.85;12.85;;;;;;;12.27;100.00;101930.34;1946309;28;20034;-79
2022/08/29 00:30:05;;;;;;;22.45;12.93;;;;;;;12.25;100.00;101927.78;1947375;28;20058;-79
2022/08/29 00:31:03;;;;;;;20.88;12.52;;;;;;;12.23;100.00;101926.97;1947442;29;20551;-81
2022/08/29 00:32:00;;;;;;;23.80;13.27;;;;;;;12.21;100.00;101928.78;1940403;29;20091;-78
2022/08/29 00:32:58;;;;;;;22.63;12.18;;;;;;;12.20;100.00;101929.69;1946845;29;20110;-82
2022/08/29 00:33:56;;;;;;;23.67;12.90;;;;;;;12.19;100.00;101922.75;1947733;28;20031;-80
2022/08/29 00:34:53;;;;;;;31.02;13.25;;;;;;;12.17;100.00;101929.78;1954485;28;20093;-81
2022/08/29 00:35:51;;;;;;;26.42;12.48;;;;;;;12.16;100.00;101930.69;1948413;28;20374;-79
2022/08/29 00:36:48;;;;;;;21.98;12.85;;;;;;;12.13;100.00;101922.94;1955211;28;20074;-82
2022/08/29 00:37:47;;;;;;;22.42;12.57;;;;;;;12.12;100.00;101931.69;1955348;28;20402;-79
2022/08/29 00:38:44;;;;;;;27.42;12.90;;;;;;;12.10;100.00;101927.38;1948297;28;20061;-81
2022/08/29 00:39:42;;;;;;;25.33;12.38;;;;;;;12.08;100.00;101926.56;1947767;29;20038;-79
2022/08/29 00:40:47;;;;;;;26.52;13.85;;;;;;;12.03;100.00;101928.44;1947677;28;20081;-81
2022/08/29 00:41:45;;;;;;;22.38;12.70;;;;;;;12.01;100.00;101930.22;1947745;29;20105;-80
2022/08/29 00:42:43;;;;;;;24.58;13.00;;;;;;;12.00;100.00;101932.91;1947598;28;20170;-80
2022/08/29 00:43:40;;;;;;;23.05;13.05;;;;;;;11.98;100.00;101939.03;1955314;28;20089;-79
2022/08/29 00:44:38;;;;;;;24.15;13.02;;;;;;;11.96;100.00;101943.47;1955065;28;20043;-82
2022/08/29 00:45:45;;;;;;;24.58;13.18;;;;;;;11.95;100.00;101938.28;1947600;29;20055;-81
2022/08/29 00:46:51;;;;;;;23.13;13.13;;;;;;;11.92;100.00;101946.22;1948178;28;20034;-82
2022/08/29 00:47:59;;;;;;;22.48;13.40;;;;;;;11.92;100.00;101941.00;1955163;28;20081;-81
2022/08/29 00:49:04;;;;;;;22.45;12.98;;;;;;;11.89;100.00;101936.72;1955262;28;20034;-81
2022/08/29 00:50:06;;;;;;;26.85;13.70;;;;;;;11.87;100.00;101953.34;1955240;28;20109;-81
2022/08/29 00:51:16;;;;;;;24.88;13.93;;;;;;;11.84;100.00;101944.69;1955130;28;20027;-81
2022/08/29 00:52:24;;;;;;;25.73;13.73;;;;;;;11.81;100.00;101939.53;1954496;28;20050;-79
2022/08/29 00:53:32;;;;;;;28.17;13.95;;;;;;;11.80;100.00;101943.06;1955240;28;20023;-79
2022/08/29 00:54:31;;;;;;;23.67;12.88;;;;;;;11.80;100.00;101945.69;1954518;28;20034;-80
2022/08/29 00:55:32;;;;;;;23.58;13.23;;;;;;;11.80;100.00;101937.84;1947733;28;20032;-80
2022/08/29 00:56:32;;;;;;;25.40;13.48;;;;;;;11.77;100.00;101937.94;1947511;28;20034;-80
2022/08/29 00:57:32;;;;;;;24.27;13.10;;;;;;;11.77;100.00;101937.09;1947546;29;20034;-79
2022/08/29 00:58:41;;;;;;;23.92;13.15;;;;;;;11.76;100.00;101936.22;1948110;29;20121;-78
2022/08/29 00:59:40;;;;;;;26.05;13.40;;;;;;;11.74;100.00;101938.03;1947210;29;20035;-81
2022/08/29 01:00:38;;;;;;;24.13;13.68;;;;;;;11.71;100.00;101941.56;1954957;28;20089;-78
2022/08/29 01:01:35;;;;;;;25.45;13.80;;;;;;;11.70;100.00;101937.25;1955004;28;20446;-80
2022/08/29 01:02:34;;;;;;;25.52;12.95;;;;;;;11.66;100.00;101938.25;1948216;28;20447;-82
2022/08/29 01:03:35;;;;;;;24.23;13.48;;;;;;;11.65;100.00;101948.75;1947444;28;20035;-82
2022/08/29 01:04:33;;;;;;;24.13;13.40;;;;;;;11.64;100.00;101941.81;1947544;28;20035;-83
2022/08/29 01:05:31;;;;;;;26.10;13.75;;;;;;;11.63;100.00;101945.34;1954814;28;20037;-82
2022/08/29 01:06:31;;;;;;;24.52;12.77;;;;;;;11.61;100.00;101945.38;1940595;29;20081;-80
2022/08/29 01:07:28;;;;;;;21.02;12.32;;;;;;;11.61;100.00;101944.50;1947394;29;20513;-81
2022/08/29 01:08:26;;;;;;;20.88;11.85;;;;;;;11.59;100.00;101937.59;1940033;29;20031;-79
2022/08/29 01:09:26;;;;;;;25.27;12.88;;;;;;;11.57;100.00;101936.75;1939848;29;20464;-81
2022/08/29 01:12:56;;;;;;;22.00;12.63;;;;;;;11.47;100.00;101940.56;1940309;29;20024;-79
2022/08/29 01:13:55;;;;;;;21.83;12.75;;;;;;;11.49;100.00;101943.97;1940295;29;20020;-80
2022/08/29 01:14:58;;;;;;;22.30;12.85;;;;;;;11.49;100.00;101949.19;1940669;29;20443;-81
2022/08/29 01:15:57;;;;;;;22.30;12.40;;;;;;;11.46;100.00;101936.22;1947223;29;20068;-80
2022/08/29 01:16:58;;;;;;;21.63;12.10;;;;;;;11.45;100.00;101942.34;1947518;28;20019;-82
2022/08/29 01:17:58;;;;;;;23.67;12.30;;;;;;;11.43;100.00;101939.78;1939925;29;20291;-82
2022/08/29 01:19:04;;;;;;;26.95;11.95;;;;;;;11.40;100.00;101945.06;1939842;29;20032;-83
2022/08/29 01:20:21;;;;;;;23.83;11.68;;;;;;;11.40;100.00;101941.63;1940388;29;20042;-81
2022/08/29 01:21:37;;;;;;;22.02;11.88;;;;;;;11.35;100.00;101946.13;1947466;29;20027;-78
2022/08/29 01:23:03;;;;;;;23.35;12.45;;;;;;;11.33;100.00;101940.94;1945647;28;20024;-81
2022/08/29 01:24:42;;;;;;;21.48;11.60;;;;;;;11.27;100.00;101941.09;1939811;29;20192;-82
2022/08/29 01:25:47;;;;;;;19.75;11.18;;;;;;;11.24;100.00;101943.78;1939866;29;20507;-80
2022/08/29 01:26:46;;;;;;;24.55;11.55;;;;;;;11.23;100.00;101942.09;1932312;29;20128;-81
2022/08/29 01:27:53;;;;;;;23.10;12.48;;;;;;;11.24;100.00;101949.91;1932551;29;20024;-80
2022/08/29 01:28:51;;;;;;;22.35;11.80;;;;;;;11.22;100.00;101946.44;1939713;29;20027;-80
2022/08/29 01:29:49;;;;;;;27.50;11.85;;;;;;;11.24;100.00;101951.63;1939961;29;20106;-79
2022/08/29 01:31:10;;;;;;;19.55;11.55;;;;;;;11.23;100.00;101945.56;1939606;29;20099;-82
2022/08/29 01:32:08;;;;;;;21.63;12.23;;;;;;;11.18;100.00;101940.47;1939760;29;20114;-79
2022/08/29 01:33:05;;;;;;;22.90;12.35;;;;;;;11.20;100.00;101943.03;1939566;29;20035;-80
2022/08/29 01:34:04;;;;;;;21.10;12.45;;;;;;;11.17;100.00;101940.50;1939772;29;20133;-79
2022/08/29 01:35:01;;;;;;;22.95;12.25;;;;;;;11.19;100.00;101946.56;1939709;29;20023;-78
2022/08/29 01:35:59;;;;;;;22.08;12.20;;;;;;;11.18;100.00;101942.22;1939757;29;20431;-81
2022/08/29 01:37:01;;;;;;;21.02;12.75;;;;;;;11.16;100.00;101934.41;1939667;29;20349;-79
2022/08/29 01:37:58;;;;;;;20.10;11.55;;;;;;;11.16;100.00;101941.41;1947138;29;20038;-79
2022/08/29 01:38:56;;;;;;;25.15;12.68;;;;;;;11.15;100.00;101940.53;1939783;29;20557;-80
2022/08/29 01:39:53;;;;;;;23.00;12.43;;;;;;;11.14;100.00;101937.97;1933157;29;20038;-80
2022/08/29 01:40:51;;;;;;;21.13;12.98;;;;;;;11.14;100.00;101938.84;1946241;28;20100;-81
2022/08/29 01:41:50;;;;;;;20.63;12.93;;;;;;;11.11;100.00;101932.81;1938760;29;20091;-81
2022/08/29 01:42:47;;;;;;;23.55;12.52;;;;;;;11.12;100.00;101930.16;1939526;29;20095;-81
2022/08/29 01:43:51;;;;;;;25.55;13.60;;;;;;;11.13;100.00;101933.66;1939743;29;20023;-83
2022/08/29 01:44:56;;;;;;;29.63;12.82;;;;;;;11.11;100.00;101927.59;1939707;29;20040;-80
2022/08/29 01:45:54;;;;;;;22.50;11.90;;;;;;;11.11;100.00;101924.97;1947113;29;20114;-80
2022/08/29 01:46:58;;;;;;;24.40;13.57;;;;;;;11.08;100.00;101928.53;1947339;29;20027;-80
2022/08/29 01:47:55;;;;;;;20.85;12.52;;;;;;;11.07;100.00;101930.31;1940133;29;20030;-80
2022/08/29 01:48:53;;;;;;;20.63;12.93;;;;;;;11.05;100.00;101934.72;1939748;29;20035;-83
2022/08/29 01:49:52;;;;;;;25.38;12.68;;;;;;;11.05;100.00;101933.88;1939762;29;20596;-81
2022/08/29 01:50:49;;;;;;;24.13;13.20;;;;;;;11.07;100.00;101932.94;1939713;29;20042;-79
2022/08/29 01:51:47;;;;;;;23.92;13.38;;;;;;;11.06;100.00;101939.03;1947041;29;20046;-79
2022/08/29 01:52:44;;;;;;;22.23;12.55;;;;;;;11.08;100.00;101929.41;1947135;29;20447;-84
2022/08/29 01:53:43;;;;;;;21.20;12.48;;;;;;;11.08;100.00;101939.00;1940902;29;20436;-80
2022/08/29 01:54:43;;;;;;;25.35;12.23;;;;;;;11.07;100.00;101932.94;1939689;29;20043;-80
2022/08/29 01:55:41;;;;;;;19.27;12.25;;;;;;;11.07;100.00;101934.69;1939500;29;20126;-81
2022/08/29 01:56:47;;;;;;;19.42;12.57;;;;;;;11.06;100.00;101936.41;1947092;29;20030;-82
2022/08/29 01:57:45;;;;;;;23.27;12.55;;;;;;;11.04;100.00;101933.00;1946712;28;20042;-80
2022/08/29 01:58:45;;;;;;;17.30;12.68;;;;;;;11.03;100.00;101936.53;1939592;29;20454;-80
2022/08/29 01:59:44;;;;;;;22.33;12.38;;;;;;;11.04;100.00;101942.59;1946872;28;20093;-79
2022/08/29 02:00:41;;;;;;;18.73;12.30;;;;;;;11.02;100.00;101945.25;1947200;29;20046;-80
2022/08/29 02:01:46;;;;;;;25.05;12.75;;;;;;;11.02;100.00;101947.84;1939603;29;20368;-80
2022/08/29 02:02:43;;;;;;;24.45;12.73;;;;;;;10.99;100.00;101940.13;1939588;29;20031;-81
2022/08/29 02:03:41;;;;;;;21.02;12.88;;;;;;;10.98;100.00;101941.00;1939552;29;20163;-82
2022/08/29 02:04:39;;;;;;;21.65;12.52;;;;;;;10.96;100.00;101942.81;1947007;29;20042;-81
2022/08/29 02:05:37;;;;;;;19.92;12.68;;;;;;;10.95;100.00;101944.53;1946514;28;20031;-81
2022/08/29 02:06:36;;;;;;;22.75;13.35;;;;;;;10.95;100.00;101946.31;1946660;29;20041;-78
2022/08/29 02:07:33;;;;;;;22.02;12.88;;;;;;;10.95;100.00;101948.94;1946988;28;20041;-80
2022/08/29 02:08:30;;;;;;;21.30;13.65;;;;;;;10.95;100.00;101943.72;1947007;28;20359;-80
2022/08/29 02:09:29;;;;;;;22.55;12.90;;;;;;;10.92;100.00;101939.41;1947044;29;20047;-81
2022/08/29 02:10:26;;;;;;;24.67;13.55;;;;;;;10.92;100.00;101938.56;1932813;29;20032;-81
2022/08/29 02:11:23;;;;;;;22.02;13.20;;;;;;;10.90;100.00;101940.34;1932130;29;20032;-81
2022/08/29 02:12:21;;;;;;;21.52;13.65;;;;;;;10.90;100.00;101936.00;1946013;29;20037;-78
2022/08/29 02:13:19;;;;;;;24.25;14.02;;;;;;;10.89;100.00;101938.63;1947011;29;20050;-80
2022/08/29 02:14:16;;;;;;;23.85;13.85;;;;;;;10.88;100.00;101934.31;1939382;28;20030;-79
2022/08/29 02:15:17;;;;;;;23.60;13.65;;;;;;;10.86;100.00;101930.88;1939347;29;20489;-81
2022/08/29 02:16:15;;;;;;;22.05;13.85;;;;;;;10.87;100.00;101929.97;1946558;29;20119;-80
2022/08/29 02:17:12;;;;;;;23.70;14.10;;;;;;;10.85;100.00;101932.66;1946998;29;20048;-80
2022/08/29 02:18:10;;;;;;;25.15;14.48;;;;;;;10.87;100.00;101929.97;1940208;29;20063;-81
2022/08/29 02:19:07;;;;;;;24.33;13.32;;;;;;;10.85;100.00;101930.03;1932631;29;20039;-81
2022/08/29 02:20:07;;;;;;;22.63;14.82;;;;;;;10.86;100.00;101930.88;1939502;29;20519;-78
2022/08/29 02:21:05;;;;;;;23.55;13.85;;;;;;;10.84;100.00;101940.53;1946880;29;20130;-81
2022/08/29 02:22:03;;;;;;;27.52;15.00;;;;;;;10.82;100.00;101936.16;1947058;29;20026;-80
2022/08/29 02:23:00;;;;;;;25.85;14.10;;;;;;;10.82;100.00;101941.41;1946817;28;20070;-83
2022/08/29 02:24:01;;;;;;;22.20;14.80;;;;;;;10.82;100.00;101941.41;1946904;28;20603;-83
2022/08/29 02:24:59;;;;;;;23.30;14.38;;;;;;;10.82;100.00;101941.41;1946797;29;20019;-81
2022/08/29 02:25:56;;;;;;;25.80;14.23;;;;;;;10.83;100.00;101947.50;1946968;29;20436;-80
2022/08/29 02:26:56;;;;;;;20.30;13.07;;;;;;;10.80;100.00;101937.97;1946922;28;20027;-83
2022/08/29 02:27:54;;;;;;;20.80;14.02;;;;;;;10.80;100.00;101944.94;1939390;29;20028;-78
2022/08/29 02:28:52;;;;;;;24.10;13.40;;;;;;;10.79;100.00;101946.72;1932104;29;20480;-80
2022/08/29 02:29:50;;;;;;;26.08;13.98;;;;;;;10.79;100.00;101943.25;1938804;29;20102;-80
2022/08/29 02:30:52;;;;;;;25.15;13.45;;;;;;;10.77;100.00;101943.28;1939820;29;20020;-81
2022/08/29 02:31:50;;;;;;;20.25;12.82;;;;;;;10.75;100.00;101942.47;1946643;29;20106;-80
2022/08/29 02:32:49;;;;;;;24.35;14.70;;;;;;;10.72;100.00;101947.78;1939436;29;20344;-80
2022/08/29 02:33:47;;;;;;;26.83;14.50;;;;;;;10.72;100.00;101947.78;1946956;28;20023;-80
2022/08/29 02:34:45;;;;;;;24.98;14.77;;;;;;;10.72;100.00;101946.91;1946904;28;20121;-80
2022/08/29 02:35:44;;;;;;;24.70;14.45;;;;;;;10.71;100.00;101947.81;1946691;29;20050;-79
2022/08/29 02:36:42;;;;;;;21.02;14.20;;;;;;;10.71;100.00;101951.25;1946869;29;20023;-81
2022/08/29 02:37:40;;;;;;;23.98;14.00;;;;;;;10.70;100.00;101949.53;1946764;28;20023;-83
2022/08/29 02:38:38;;;;;;;22.60;14.52;;;;;;;10.69;100.00;101951.31;1946932;29;20041;-78
2022/08/29 02:39:36;;;;;;;20.75;14.75;;;;;;;10.71;100.00;101950.41;1946750;28;20096;-81
2022/08/29 02:40:34;;;;;;;21.23;14.77;;;;;;;10.69;100.00;101950.44;1946866;28;20031;-79
2022/08/29 02:41:31;;;;;;;26.15;15.45;;;;;;;10.69;100.00;101953.06;1940023;29;20091;-79
2022/08/29 02:42:29;;;;;;;22.85;15.35;;;;;;;10.69;100.00;101953.06;1939251;29;20032;-82
2022/08/29 02:43:27;;;;;;;23.38;15.07;;;;;;;10.69;100.00;101953.06;1939249;29;20030;-80
2022/08/29 02:44:24;;;;;;;23.25;15.80;;;;;;;10.71;100.00;101951.25;1939244;29;20052;-79
2022/08/29 02:45:22;;;;;;;23.77;15.15;;;;;;;10.69;100.00;101953.06;1939370;29;20566;-78
2022/08/29 02:46:20;;;;;;;24.40;15.68;;;;;;;10.68;100.00;101951.34;1946757;28;20057;-81
2022/08/29 02:47:17;;;;;;;23.30;16.15;;;;;;;10.69;100.00;101947.84;1946709;28;20035;-81
2022/08/29 02:48:16;;;;;;;27.45;16.65;;;;;;;10.68;100.00;101946.13;1940156;28;20362;-82
2022/08/29 02:49:14;;;;;;;25.05;15.55;;;;;;;10.69;100.00;101953.06;1946955;28;20031;-80
2022/08/29 02:50:12;;;;;;;27.52;17.10;;;;;;;10.69;100.00;101960.88;1946820;29;20061;-82
2022/08/29 02:51:17;;;;;;;28.88;16.02;;;;;;;10.68;100.00;101956.56;1939800;29;20070;-80
2022/08/29 02:52:14;;;;;;;25.77;16.65;;;;;;;10.69;100.00;101953.06;1931626;29;20380;-80
2022/08/29 02:53:16;;;;;;;28.85;17.35;;;;;;;10.71;100.00;101961.69;1931515;29;20034;-81
2022/08/29 02:54:13;;;;;;;32.42;18.63;;;;;;;10.69;100.00;101959.16;1931747;29;20095;-80
2022/08/29 02:55:16;;;;;;;30.42;18.20;;;;;;;10.71;100.00;101955.63;1946350;29;20521;-80
2022/08/29 02:56:14;;;;;;;28.23;19.02;;;;;;;10.71;100.00;101955.63;1946767;28;20035;-83
2022/08/29 02:57:11;;;;;;;25.77;19.15;;;;;;;10.70;100.00;101957.38;1946803;29;20421;-81
2022/08/29 02:58:12;;;;;;;31.15;20.80;;;;;;;10.69;100.00;101959.16;1946846;28;20039;-79
2022/08/29 02:59:10;;;;;;;29.83;19.45;;;;;;;10.70;100.00;101952.16;1946709;28;20422;-81
2022/08/29 03:00:15;;;;;;;30.08;19.50;;;;;;;10.69;100.00;101951.31;1931969;29;20060;-80
2022/08/29 03:01:13;;;;;;;31.77;20.63;;;;;;;10.71;100.00;101951.25;1923969;29;20057;-81
2022/08/29 03:02:10;;;;;;;28.73;19.58;;;;;;;10.72;100.00;101953.00;1939166;29;20046;-79
2022/08/29 03:03:09;;;;;;;32.03;21.13;;;;;;;10.72;100.00;101952.13;1946514;29;20019;-83
2022/08/29 03:04:07;;;;;;;34.22;21.65;;;;;;;10.72;100.00;101950.38;1946725;29;20467;-80
2022/08/29 03:05:05;;;;;;;28.73;19.75;;;;;;;10.72;100.00;101953.00;1946500;29;20120;-84
2022/08/29 03:06:03;;;;;;;35.28;20.63;;;;;;;10.73;100.00;101952.09;1950782;28;20126;-82
2022/08/29 03:07:00;;;;;;;34.30;21.23;;;;;;;10.73;100.00;101952.09;1946644;28;20030;-81
2022/08/29 03:07:58;;;;;;;30.17;20.10;;;;;;;10.72;100.00;101953.00;1946716;28;20387;-83
2022/08/29 03:08:55;;;;;;;32.58;19.58;;;;;;;10.71;100.00;101948.63;1953370;28;20027;-82
2022/08/29 03:09:53;;;;;;;29.33;19.60;;;;;;;10.71;100.00;101945.19;1947453;28;20033;-80
2022/08/29 03:10:51;;;;;;;28.65;18.90;;;;;;;10.71;100.00;101955.63;1940034;29;20460;-81
2022/08/29 03:11:51;;;;;;;24.70;17.98;;;;;;;10.71;100.00;101950.41;1946023;29;20027;-79
2022/08/29 03:12:49;;;;;;;26.05;16.98;;;;;;;10.67;100.00;101953.09;1946347;29;20027;-80
2022/08/29 03:13:46;;;;;;;29.38;17.75;;;;;;;10.67;100.00;101934.81;1946561;29;20027;-80
2022/08/29 03:14:44;;;;;;;27.73;16.85;;;;;;;10.67;100.00;101947.00;1953861;28;20022;-81
2022/08/29 03:15:41;;;;;;;26.30;16.38;;;;;;;10.67;100.00;101944.41;1954167;28;20063;-81
2022/08/29 03:16:41;;;;;;;23.98;16.95;;;;;;;10.64;100.00;101945.34;1947692;28;20101;-81
2022/08/29 03:17:39;;;;;;;26.50;17.48;;;;;;;10.64;100.00;101950.56;1954049;28;20118;-81
2022/08/29 03:18:36;;;;;;;28.17;17.95;;;;;;;10.63;100.00;101942.75;1946550;28;20034;-79
2022/08/29 03:19:34;;;;;;;24.45;17.60;;;;;;;10.65;100.00;101952.28;1939796;28;20036;-80
2022/08/29 03:20:35;;;;;;;27.15;18.45;;;;;;;10.65;100.00;101951.44;1945879;29;20133;-78
2022/08/29 03:21:33;;;;;;;26.02;17.45;;;;;;;10.64;100.00;101950.56;1946542;28;20027;-81
2022/08/29 03:22:31;;;;;;;32.63;17.77;;;;;;;10.63;100.00;101943.63;1946913;28;20035;-80
2022/08/29 03:23:28;;;;;;;29.92;18.83;;;;;;;10.64;100.00;101949.72;1953520;28;20054;-79
2022/08/29 03:24:26;;;;;;;29.60;18.85;;;;;;;10.62;100.00;101946.28;1947341;28;20031;-81
2022/08/29 03:25:24;;;;;;;28.42;18.00;;;;;;;10.62;100.00;101938.44;1946297;28;20419;-80
2022/08/29 03:26:23;;;;;;;30.50;20.25;;;;;;;10.61;100.00;101944.56;1954263;28;20044;-80
2022/08/29 03:27:21;;;;;;;32.63;18.77;;;;;;;10.62;100.00;101941.06;1954157;28;20501;-80
2022/08/29 03:28:19;;;;;;;31.67;20.90;;;;;;;10.63;100.00;101941.00;1947031;28;20027;-78
2022/08/29 03:29:16;;;;;;;29.63;21.23;;;;;;;10.63;100.00;101937.53;1953874;28;20027;-80
2022/08/29 03:30:16;;;;;;;28.23;20.23;;;;;;;10.64;100.00;101939.28;1954164;28;20041;-79
2022/08/29 03:31:14;;;;;;;34.03;21.20;;;;;;;10.64;100.00;101936.66;1947180;28;20447;-80
2022/08/29 03:32:12;;;;;;;33.67;20.67;;;;;;;10.63;100.00;101937.53;1954012;28;20090;-79
2022/08/29 03:33:10;;;;;;;32.08;21.33;;;;;;;10.63;100.00;101937.53;1953985;28;20132;-81
2022/08/29 03:34:07;;;;;;;30.73;19.88;;;;;;;10.64;100.00;101931.44;1947216;28;20039;-80
2022/08/29 03:35:06;;;;;;;36.45;21.65;;;;;;;10.62;100.00;101934.09;1946712;29;20028;-80
2022/08/29 03:36:06;;;;;;;33.33;22.15;;;;;;;10.64;100.00;101931.44;1946236;29;20031;-79
2022/08/29 03:37:04;;;;;;;31.05;21.40;;;;;;;10.62;100.00;101930.59;1946713;29;20030;-80
2022/08/29 03:38:01;;;;;;;33.35;21.35;;;;;;;10.63;100.00;101933.19;1946572;28;20060;-80
2022/08/29 03:38:59;;;;;;;30.42;22.50;;;;;;;10.62;100.00;101930.59;1954242;28;20094;-79
2022/08/29 03:39:56;;;;;;;31.77;21.58;;;;;;;10.63;100.00;101934.94;1954130;28;20022;-82
2022/08/29 03:40:54;;;;;;;32.58;22.13;;;;;;;10.62;100.00;101935.84;1947833;28;20106;-81
2022/08/29 03:41:52;;;;;;;30.23;22.17;;;;;;;10.62;100.00;101928.88;1946950;28;20031;-81
2022/08/29 03:42:50;;;;;;;34.22;21.98;;;;;;;10.63;100.00;101927.09;1954222;28;20027;-81
2022/08/29 03:43:47;;;;;;;33.80;21.83;;;;;;;10.61;100.00;101929.75;1953966;28;20034;-80
2022/08/29 03:44:45;;;;;;;31.50;22.90;;;;;;;10.62;100.00;101930.59;1947212;28;20501;-81
2022/08/29 03:45:42;;;;;;;42.22;23.20;;;;;;;10.60;100.00;101921.97;1954136;28;20031;-81
2022/08/29 03:46:40;;;;;;;34.78;22.67;;;;;;;10.63;100.00;101916.66;1947095;28;20055;-81
2022/08/29 03:47:38;;;;;;;34.20;22.83;;;;;;;10.61;100.00;101918.47;1947196;28;20031;-81
2022/08/29 03:48:35;;;;;;;36.58;22.88;;;;;;;10.61;100.00;101914.06;1953845;28;20027;-82
2022/08/29 03:49:33;;;;;;;35.15;23.42;;;;;;;10.59;100.00;101912.41;1954085;28;20030;-81
2022/08/29 03:50:31;;;;;;;33.97;23.50;;;;;;;10.60;100.00;101911.53;1947152;28;20027;-80
2022/08/29 03:51:30;;;;;;;33.58;23.13;;;;;;;10.61;100.00;101902.81;1946553;29;20027;-80
2022/08/29 03:52:28;;;;;;;39.05;24.63;;;;;;;10.62;100.00;101900.16;1946360;28;20042;-80
2022/08/29 03:53:26;;;;;;;33.63;24.73;;;;;;;10.62;100.00;101904.50;1953918;28;20023;-81
2022/08/29 03:54:23;;;;;;;34.13;24.05;;;;;;;10.66;100.00;101903.53;1954012;28;20034;-80
2022/08/29 03:55:21;;;;;;;46.80;25.23;;;;;;;10.67;100.00;101907.84;1947368;28;20418;-79
2022/08/29 03:56:19;;;;;;;36.38;24.98;;;;;;;10.69;100.00;101906.94;1946490;29;20058;-81
2022/08/29 03:57:16;;;;;;;36.35;24.67;;;;;;;10.68;100.00;101909.59;1946486;29;20029;-81
2022/08/29 03:58:14;;;;;;;43.95;25.75;;;;;;;10.67;100.00;101906.09;1939726;29;20039;-79
2022/08/29 03:59:12;;;;;;;41.58;25.17;;;;;;;10.69;100.00;101900.84;1946181;29;20028;-79
2022/08/29 04:00:15;;;;;;;38.22;24.33;;;;;;;10.68;100.00;101899.97;1946886;29;20035;-81
2022/08/29 04:01:13;;;;;;;45.40;25.20;;;;;;;10.71;100.00;101893.81;1953937;28;20023;-83
2022/08/29 04:02:11;;;;;;;36.90;24.80;;;;;;;10.73;100.00;101901.63;1954216;28;20089;-79
2022/08/29 04:03:11;;;;;;;40.78;24.65;;;;;;;10.73;100.00;101902.47;1946865;28;20087;-80
2022/08/29 04:05:05;;;;;;;39.78;24.95;;;;;;;10.75;100.00;101900.69;1946368;28;20039;-81
2022/08/29 04:05:29;;;;;;;39.63;24.98;;;;;;;10.69;100.00;101904.31;1947675;29;20035;-81
2022/08/29 04:06:29;;;;;;;43.95;25.77;;;;;;;10.72;100.00;101899.91;1948342;29;20379;-81
2022/08/29 04:07:27;;;;;;;33.75;23.63;;;;;;;10.71;100.00;101908.66;1955530;28;20031;-81
2022/08/29 04:08:24;;;;;;;41.63;24.17;;;;;;;10.73;100.00;101906.84;1955584;28;20030;-81
2022/08/29 04:09:22;;;;;;;36.80;24.15;;;;;;;10.72;100.00;101906.00;1948632;28;20370;-79
2022/08/29 04:10:28;;;;;;;38.55;23.23;;;;;;;10.76;100.00;101902.41;1955619;28;20120;-80
2022/08/29 04:11:27;;;;;;;36.03;24.20;;;;;;;10.76;100.00;101907.63;1955239;28;20030;-80
2022/08/29 04:12:25;;;;;;;38.47;24.63;;;;;;;10.78;100.00;101905.81;1947803;29;20042;-81
2022/08/29 04:13:22;;;;;;;42.20;24.75;;;;;;;10.78;100.00;101900.59;1947903;28;20073;-82
2022/08/29 04:14:20;;;;;;;39.22;24.25;;;;;;;10.76;100.00;101905.00;1947777;29;20076;-83
2022/08/29 04:15:17;;;;;;;45.75;24.92;;;;;;;10.78;100.00;101904.97;1940217;29;20500;-81
2022/08/29 04:16:26;;;;;;;36.53;24.85;;;;;;;10.80;100.00;101908.38;1940401;29;20079;-81
2022/08/29 04:17:23;;;;;;;44.45;24.42;;;;;;;10.79;100.00;101912.78;1948275;29;20358;-79
2022/08/29 04:18:21;;;;;;;41.03;24.15;;;;;;;10.79;100.00;101915.38;1948216;29;20397;-81
2022/08/29 04:19:20;;;;;;;36.90;24.83;;;;;;;10.82;100.00;101917.88;1955408;28;20086;-80
2022/08/29 04:20:18;;;;;;;40.80;24.85;;;;;;;10.82;100.00;101919.66;1955431;28;20173;-79
2022/08/29 04:21:17;;;;;;;36.22;23.17;;;;;;;10.81;100.00;101923.16;1948165;28;20503;-80
2022/08/29 04:22:14;;;;;;;41.38;23.90;;;;;;;10.81;100.00;101918.78;1940204;29;20027;-79
2022/08/29 04:23:13;;;;;;;38.95;22.65;;;;;;;10.84;100.00;101917.84;1940301;29;20090;-80
2022/08/29 04:24:11;;;;;;;35.15;21.92;;;;;;;10.84;100.00;101919.63;1954630;28;20339;-79
2022/08/29 04:25:13;;;;;;;36.75;23.98;;;;;;;10.85;100.00;101918.72;1955449;28;20030;-81
2022/08/29 04:26:18;;;;;;;39.67;23.35;;;;;;;10.84;100.00;101924.84;1947889;28;20073;-80
2022/08/29 04:27:16;;;;;;;38.30;22.25;;;;;;;10.83;100.00;101923.97;1947512;29;20049;-80
2022/08/29 04:28:13;;;;;;;42.58;23.52;;;;;;;10.81;100.00;101916.19;1940285;29;20035;-81
2022/08/29 04:29:12;;;;;;;37.78;23.30;;;;;;;10.84;100.00;101919.63;1947762;29;20042;-82
2022/08/29 04:30:17;;;;;;;40.17;23.20;;;;;;;10.82;100.00;101917.06;1955215;28;20509;-82